Time;durP1;ratioP1;P1;durP2;ratioP2;P2;SDS_P1;SDS_P2;PMS_P1;PMS_P2;Temp;Humidity;BMP_temperature;BMP_pressure;BME280_temperature;BME280_humidity;BME280_pressure;Samples;Min_cycle;Max_cycle;Signal;HPM_P1;HPM_P2
2021/04/13 00:03:09;;;;;;;6.33;5.03;;;;;;;0.34;100.00;99429.69;3691281;78;43157;-25
2021/04/13 00:08:18;;;;;;;9.40;5.47;;;;;;;0.26;100.00;99437.53;3697130;78;43285;-25
2021/04/13 00:13:28;;;;;;;7.37;5.30;;;;;;;0.22;100.00;99438.59;3636220;80;43718;-26
2021/04/13 00:18:39;;;;;;;7.13;5.27;;;;;;;0.20;100.00;99439.61;3673955;78;43389;-25
2021/04/13 00:23:46;;;;;;;14.53;6.33;;;;;;;0.09;100.00;99440.08;3672753;79;43487;-26
2021/04/13 00:28:54;;;;;;;11.00;6.07;;;;;;;0.07;100.00;99437.97;3668340;79;43714;-25
2021/04/13 00:34:00;;;;;;;9.43;5.63;;;;;;;0.04;100.00;99436.32;3665479;79;44026;-25
2021/04/13 00:39:20;;;;;;;8.40;5.77;;;;;;;0.11;100.00;99424.53;3612019;80;43722;-25
2021/04/13 00:44:28;;;;;;;8.47;5.47;;;;;;;0.11;100.00;99425.86;3666018;79;44542;-25
2021/04/13 00:49:37;;;;;;;7.90;5.33;;;;;;;0.04;100.00;99427.53;3676005;79;44520;-25
2021/04/13 00:54:46;;;;;;;7.40;5.30;;;;;;;-0.06;100.00;99429.24;3665536;79;44121;-25
2021/04/13 00:59:55;;;;;;;8.47;5.83;;;;;;;-0.13;100.00;99425.16;3677915;79;43888;-25
2021/04/13 01:05:06;;;;;;;8.03;5.70;;;;;;;-0.14;100.00;99427.89;3672714;79;44370;-25
2021/04/13 01:10:15;;;;;;;7.63;5.33;;;;;;;-0.17;100.00;99421.80;3721137;79;44511;-24
2021/04/13 01:15:22;;;;;;;10.30;6.50;;;;;;;-0.16;100.00;99426.61;3675816;79;43676;-25
2021/04/13 01:20:34;;;;;;;7.97;5.73;;;;;;;-0.23;100.00;99427.83;3620432;80;44001;-26
2021/04/13 01:25:41;;;;;;;9.50;5.67;;;;;;;-0.29;100.00;99424.98;3659248;79;44156;-26
2021/04/13 01:30:50;;;;;;;8.97;5.67;;;;;;;-0.24;100.00;99419.48;3668998;79;43693;-25
2021/04/13 01:35:58;;;;;;;8.77;6.50;;;;;;;-0.32;100.00;99426.44;3612443;80;43309;-25
2021/04/13 01:41:20;;;;;;;8.63;6.27;;;;;;;-0.39;100.00;99427.65;3670191;79;43415;-26
2021/04/13 01:46:16;;;;;;;10.83;5.83;;;;;;;-0.55;100.00;99431.43;3663658;79;44467;-25
2021/04/13 01:51:22;;;;;;;10.73;6.53;;;;;;;-0.59;100.00;99432.47;3609376;80;43393;-24
2021/04/13 01:56:34;;;;;;;9.93;6.70;;;;;;;-0.44;100.00;99438.89;3665656;79;44072;-26
2021/04/13 02:01:43;;;;;;;10.70;6.40;;;;;;;-0.43;100.00;99436.19;3668104;79;43033;-25
2021/04/13 02:06:54;;;;;;;9.53;6.53;;;;;;;-0.54;100.00;99451.20;3612434;80;43092;-26
2021/04/13 02:12:03;;;;;;;10.40;6.63;;;;;;;-0.56;100.00;99450.40;3671187;79;44212;-26
2021/04/13 02:17:11;;;;;;;9.37;6.23;;;;;;;-0.53;100.00;99455.58;3669800;78;44101;-26
2021/04/13 02:22:20;;;;;;;9.53;5.97;;;;;;;-0.62;100.00;99455.49;3607336;80;43478;-25
2021/04/13 02:27:28;;;;;;;8.03;5.50;;;;;;;-0.69;100.00;99461.98;3674282;79;43495;-26
2021/04/13 02:32:35;;;;;;;11.00;6.50;;;;;;;-0.80;100.00;99461.09;3665298;79;44023;-25
2021/04/13 02:37:44;;;;;;;10.30;6.20;;;;;;;-0.86;100.00;99466.66;3610390;80;43401;-24
2021/04/13 02:42:53;;;;;;;7.97;5.90;;;;;;;-0.91;100.00;99463.80;3655204;79;44639;-24
2021/04/13 02:48:03;;;;;;;10.03;6.67;;;;;;;-0.92;100.00;99471.34;3668246;79;43963;-25
2021/04/13 02:53:11;;;;;;;10.60;6.40;;;;;;;-0.94;100.00;99467.41;3611184;80;43553;-24
2021/04/13 02:58:19;;;;;;;11.83;7.30;;;;;;;-0.98;100.00;99475.94;3613493;80;43710;-25
2021/04/13 03:03:29;;;;;;;13.30;7.33;;;;;;;-0.99;100.00;99472.89;3655024;80;43348;-21
2021/04/13 03:08:39;;;;;;;11.30;7.33;;;;;;;-1.02;100.00;99470.39;3588866;81;44148;-22
2021/04/13 03:13:47;;;;;;;13.80;7.77;;;;;;;-1.03;100.00;99472.63;3664321;79;44053;-22
2021/04/13 03:18:55;;;;;;;12.20;7.50;;;;;;;-1.07;100.00;99474.14;3673956;79;44010;-22
2021/04/13 03:24:04;;;;;;;14.27;8.43;;;;;;;-1.10;100.00;99476.42;3608285;80;43990;-22
2021/04/13 03:29:14;;;;;;;15.53;8.70;;;;;;;-1.12;100.00;99476.98;3667935;79;43722;-22
2021/04/13 03:34:22;;;;;;;14.87;8.73;;;;;;;-1.18;100.00;99478.09;3664677;79;43362;-22
2021/04/13 03:39:30;;;;;;;15.67;9.23;;;;;;;-1.20;100.00;99486.53;3612954;80;43684;-22
2021/04/13 03:44:40;;;;;;;13.53;8.47;;;;;;;-1.25;100.00;99480.55;3666680;79;44023;-21
2021/04/13 03:49:48;;;;;;;19.53;9.80;;;;;;;-1.33;100.00;99484.81;3670245;79;43947;-22
2021/04/13 03:54:55;;;;;;;17.03;9.57;;;;;;;-1.40;100.00;99494.76;3612081;80;43668;-22
2021/04/13 04:00:03;;;;;;;16.73;9.90;;;;;;;-1.43;100.00;99494.02;3561112;81;43987;-22
2021/04/13 04:05:14;;;;;;;17.93;10.70;;;;;;;-1.49;100.00;99497.77;3664288;79;43115;-22
2021/04/13 04:10:47;;;;;;;15.07;9.10;;;;;;;-1.50;100.00;99493.87;3670196;79;44023;-22
2021/04/13 04:15:56;;;;;;;17.83;10.37;;;;;;;-1.50;100.00;99496.52;3664617;79;43685;-23
2021/04/13 04:21:14;;;;;;;18.93;9.87;;;;;;;-1.53;100.00;99504.11;3669057;79;44146;-23
2021/04/13 04:26:25;;;;;;;19.43;10.60;;;;;;;-1.52;100.00;99508.44;3668510;79;44093;-22
2021/04/13 04:31:36;;;;;;;20.23;11.37;;;;;;;-1.56;100.00;99510.34;3668402;79;44061;-22
2021/04/13 04:36:45;;;;;;;22.87;12.60;;;;;;;-1.58;100.00;99510.01;3664668;79;44351;-23
2021/04/13 04:41:52;;;;;;;18.53;10.93;;;;;;;-1.58;100.00;99514.82;3666899;79;43376;-22
2021/04/13 04:46:59;;;;;;;20.40;11.73;;;;;;;-1.57;100.00;99520.98;3665385;79;44023;-22
2021/04/13 04:52:07;;;;;;;22.03;12.63;;;;;;;-1.58;100.00;99521.42;3661963;79;43689;-22
2021/04/13 04:57:13;;;;;;;21.17;12.67;;;;;;;-1.56;100.00;99532.81;3689152;79;44185;-22
2021/04/13 05:02:21;;;;;;;23.83;12.37;;;;;;;-1.55;100.00;99527.93;3683634;79;44065;-21
2021/04/13 05:07:28;;;;;;;22.80;12.33;;;;;;;-1.50;100.00;99538.33;3610679;80;44253;-22
2021/04/13 05:12:34;;;;;;;21.03;11.50;;;;;;;-1.46;100.00;99541.70;3665684;79;44051;-23
2021/04/13 05:17:40;;;;;;;19.20;10.73;;;;;;;-1.46;100.00;99543.03;3671645;79;44104;-23
2021/04/13 05:22:46;;;;;;;22.77;12.47;;;;;;;-1.47;100.00;99552.75;3670166;79;44601;-23
2021/04/13 05:27:52;;;;;;;23.43;11.93;;;;;;;-1.44;100.00;99559.70;3676295;79;44025;-23
2021/04/13 05:32:58;;;;;;;20.60;11.47;;;;;;;-1.43;100.00;99561.42;3670316;79;43475;-22
2021/04/13 05:38:07;;;;;;;23.17;12.50;;;;;;;-1.39;100.00;99567.02;3681245;79;44275;-23
2021/04/13 05:43:14;;;;;;;22.77;12.43;;;;;;;-1.32;100.00;99565.85;3667239;79;44086;-23
2021/04/13 05:48:20;;;;;;;24.63;13.03;;;;;;;-1.26;100.00;99574.89;3681492;79;43360;-22
2021/04/13 05:53:26;;;;;;;22.93;13.30;;;;;;;-1.17;100.00;99578.09;3670727;79;43993;-22
2021/04/13 05:58:35;;;;;;;25.43;13.50;;;;;;;-1.09;100.00;99568.95;3673242;79;44583;-23
2021/04/13 06:03:42;;;;;;;24.77;12.73;;;;;;;-1.03;100.00;99571.83;3668184;79;44563;-23
2021/04/13 06:08:49;;;;;;;24.53;12.97;;;;;;;-0.98;100.00;99572.48;3682915;79;43352;-23
2021/04/13 06:13:57;;;;;;;21.43;12.43;;;;;;;-0.86;100.00;99578.22;3674668;79;43322;-23
2021/04/13 06:19:03;;;;;;;24.63;13.07;;;;;;;-0.80;100.00;99580.64;3609538;80;43231;-23
2021/04/13 06:24:10;;;;;;;25.20;13.60;;;;;;;-0.69;100.00;99582.40;3666825;79;43460;-23
2021/04/13 06:29:16;;;;;;;24.70;12.97;;;;;;;-0.59;100.00;99592.17;3672576;79;44087;-23
2021/04/13 06:34:22;;;;;;;25.47;13.90;;;;;;;-0.43;100.00;99583.14;3608035;80;43073;-22
2021/04/13 06:39:28;;;;;;;23.43;13.07;;;;;;;-0.32;100.00;99583.55;3686427;79;43690;-23
2021/04/13 06:45:13;;;;;;;23.27;12.43;;;;;;;-0.15;100.00;99583.30;3612960;80;44004;-23
2021/04/13 06:50:26;;;;;;;20.93;11.80;;;;;;;-0.01;100.00;99592.84;3567760;81;43433;-23
2021/04/13 06:55:43;;;;;;;21.53;12.00;;;;;;;0.17;100.00;99590.35;3577486;81;44136;-23
2021/04/13 07:00:57;;;;;;;18.97;10.80;;;;;;;0.40;100.00;99597.77;3577575;81;43732;-23
2021/04/13 07:06:08;;;;;;;18.63;10.97;;;;;;;0.59;100.00;99595.13;3616378;80;43680;-23
2021/04/13 07:11:19;;;;;;;15.50;9.40;;;;;;;0.88;100.00;99603.56;3739765;79;43665;-22
2021/04/13 07:16:29;;;;;;;17.67;9.03;;;;;;;1.07;100.00;99600.92;3737184;78;43720;-23
2021/04/13 07:21:39;;;;;;;13.57;7.47;;;;;;;1.26;100.00;99607.55;3713614;79;44197;-23
2021/04/13 07:26:50;;;;;;;13.50;7.37;;;;;;;1.59;100.00;99606.02;3730528;79;44058;-21
2021/04/13 07:32:00;;;;;;;11.60;7.03;;;;;;;1.71;100.00;99604.05;3760621;79;44019;-23
2021/04/13 07:37:11;;;;;;;12.00;6.47;;;;;;;1.84;100.00;99604.31;3760713;79;44094;-22
2021/04/13 07:42:21;;;;;;;11.23;5.93;;;;;;;2.07;100.00;99611.60;3760997;79;44086;-22
2021/04/13 07:47:39;;;;;;;10.23;6.13;;;;;;;2.33;100.00;99606.27;3723988;79;44010;-22
2021/04/13 07:52:48;;;;;;;9.00;6.10;;;;;;;2.46;100.00;99608.69;3631963;81;43366;-22
2021/04/13 07:57:57;;;;;;;12.10;6.43;;;;;;;2.43;100.00;99602.19;3655464;79;44439;-22
2021/04/13 08:03:09;;;;;;;8.83;5.70;;;;;;;2.69;100.00;99620.39;3637450;80;43317;-23
2021/04/13 08:08:28;;;;;;;10.27;5.43;;;;;;;2.70;100.00;99626.95;3646037;80;44044;-23
2021/04/13 08:13:35;;;;;;;8.47;5.73;;;;;;;2.50;100.00;99624.01;3760087;79;44667;-23
2021/04/13 08:18:42;;;;;;;7.60;4.23;;;;;;;2.86;100.00;99629.66;3720357;79;43456;-22
2021/04/13 08:23:50;;;;;;;10.37;4.70;;;;;;;2.99;100.00;99615.69;3760445;79;44362;-22
2021/04/13 08:29:02;;;;;;;7.73;4.30;;;;;;;2.75;100.00;99622.72;3760444;79;44028;-22
2021/04/13 08:34:22;;;;;;;5.40;3.60;;;;;;;2.74;100.00;99613.88;3724653;79;44068;-23
2021/04/13 08:39:31;;;;;;;7.83;4.00;;;;;;;2.69;100.00;99625.23;3731222;79;44082;-23
2021/04/13 08:44:44;;;;;;;6.17;3.87;;;;;;;2.97;100.00;99618.44;3754412;79;43913;-23
2021/04/13 08:49:54;;;;;;;6.77;4.07;;;;;;;3.30;100.00;99620.64;3760325;79;43708;-24
2021/04/13 08:55:11;;;;;;;6.67;4.57;;;;;;;3.18;100.00;99620.86;3724110;79;43717;-24
2021/04/13 09:00:51;;;;;;;6.70;4.00;;;;;;;3.18;100.00;99624.86;3756595;79;43360;-22
2021/04/13 09:06:12;;;;;;;5.57;3.83;;;;;;;3.25;100.00;99620.90;3587823;81;43548;-24
2021/04/13 09:11:25;;;;;;;5.53;3.97;;;;;;;2.98;100.00;99618.83;3674583;80;44186;-23
2021/04/13 09:16:34;;;;;;;4.80;3.77;;;;;;;3.57;100.00;99625.38;3674721;80;44052;-22
2021/04/13 09:21:45;;;;;;;6.30;3.63;;;;;;;3.33;100.00;99618.69;3647838;80;43677;-23
2021/04/13 09:27:04;;;;;;;4.43;3.00;;;;;;;3.80;100.00;99623.59;3729277;78;44030;-23
2021/04/13 09:32:14;;;;;;;3.87;2.43;;;;;;;4.04;97.26;99625.77;3730230;79;44101;-23
2021/04/13 09:37:27;;;;;;;4.40;2.30;;;;;;;4.25;93.20;99626.78;3732027;79;43386;-23
2021/04/13 09:43:14;;;;;;;5.40;2.63;;;;;;;4.17;91.70;99612.59;3730960;79;43455;-23
2021/04/13 09:49:03;;;;;;;3.70;2.03;;;;;;;4.26;88.41;99608.03;3727375;79;44504;-23
2021/04/13 09:54:25;;;;;;;4.33;2.10;;;;;;;4.45;91.61;99606.91;3690711;80;44045;-23
2021/04/13 09:59:43;;;;;;;5.80;2.57;;;;;;;4.53;87.50;99593.95;3738382;78;43726;-23
2021/04/13 10:04:59;;;;;;;4.73;2.90;;;;;;;4.14;88.98;99591.43;3625911;81;43599;-23
2021/04/13 10:10:10;;;;;;;4.23;2.53;;;;;;;4.25;94.39;99588.09;3730784;78;44802;-23
2021/04/13 10:15:40;;;;;;;3.13;2.50;;;;;;;4.30;93.51;99593.55;3731511;79;43393;-23
2021/04/13 10:20:51;;;;;;;4.37;2.57;;;;;;;4.28;89.67;99598.14;3699373;79;44039;-23
2021/04/13 10:26:27;;;;;;;6.90;2.90;;;;;;;4.36;88.16;99591.47;3760381;79;43275;-22
2021/04/13 10:32:10;;;;;;;4.80;3.20;;;;;;;4.48;93.46;99605.41;3759518;77;44447;-22
2021/04/13 10:38:05;;;;;;;9.97;3.43;;;;;;;4.28;90.51;99602.14;3760192;79;44453;-23
2021/04/13 10:43:46;;;;;;;4.90;3.43;;;;;;;4.41;90.53;99597.40;3724648;79;44598;-22
2021/04/13 10:49:07;;;;;;;4.50;3.10;;;;;;;4.39;89.90;99605.97;3726719;79;44073;-23
2021/04/13 10:54:44;;;;;;;5.23;3.33;;;;;;;4.15;88.19;99590.48;3755005;79;43275;-23
2021/04/13 11:00:22;;;;;;;7.43;3.60;;;;;;;4.24;92.41;99583.25;3725253;79;43295;-23
2021/04/13 11:05:42;;;;;;;5.00;3.57;;;;;;;4.06;92.27;99587.03;3758574;79;43363;-23
2021/04/13 11:11:43;;;;;;;5.77;3.17;;;;;;;4.40;90.60;99583.67;3720514;79;44139;-23
2021/04/13 11:17:28;;;;;;;4.53;3.13;;;;;;;4.36;89.61;99582.13;3747086;79;43471;-23
2021/04/13 11:23:23;;;;;;;4.13;2.97;;;;;;;4.43;87.36;99583.00;3746899;78;44017;-23
2021/04/13 11:29:12;;;;;;;3.37;3.03;;;;;;;4.34;84.40;99581.36;3680574;79;43722;-23
2021/04/13 11:34:42;;;;;;;4.50;3.10;;;;;;;4.35;88.48;99579.08;3723827;78;44021;-23
2021/04/13 11:39:54;;;;;;;5.77;3.00;;;;;;;4.18;91.31;99575.60;3628006;82;43771;-23
2021/04/13 11:45:09;;;;;;;5.57;3.13;;;;;;;4.19;92.12;99582.66;3728898;79;44033;-23
2021/04/13 11:50:23;;;;;;;5.43;3.13;;;;;;;4.34;90.66;99578.23;3727450;79;42722;-24
2021/04/13 11:55:49;;;;;;;5.83;3.50;;;;;;;4.55;90.49;99577.38;3730451;78;42405;-24
2021/04/13 12:00:56;;;;;;;5.47;2.73;;;;;;;4.80;86.65;99568.34;3730241;79;43250;-23
2021/04/13 12:06:13;;;;;;;4.97;2.83;;;;;;;4.87;83.81;99567.86;3738101;78;43713;-23
2021/04/13 12:11:38;;;;;;;8.13;2.90;;;;;;;5.07;84.70;99567.91;3693267;80;43645;-23
2021/04/13 12:17:08;;;;;;;4.33;2.63;;;;;;;5.26;82.53;99556.06;3729646;79;44489;-23
2021/04/13 12:22:37;;;;;;;4.10;2.60;;;;;;;5.48;74.87;99548.81;3704167;79;42727;-23
2021/04/13 12:27:46;;;;;;;3.07;2.27;;;;;;;5.53;73.81;99552.05;3694977;79;43673;-23
2021/04/13 12:32:52;;;;;;;4.80;2.27;;;;;;;5.38;77.43;99551.25;3760311;79;43428;-24
2021/04/13 12:37:59;;;;;;;4.07;2.60;;;;;;;5.35;74.12;99539.91;3758310;77;73342;-23
2021/04/13 12:43:24;;;;;;;7.10;2.43;;;;;;;5.52;79.65;99530.29;3729070;79;44615;-23
2021/04/13 12:48:44;;;;;;;4.53;2.20;;;;;;;5.79;79.28;99533.89;3758490;79;43718;-23
2021/04/13 12:53:50;;;;;;;4.83;2.30;;;;;;;6.27;75.74;99520.83;3756826;79;42958;-24
2021/04/13 12:59:06;;;;;;;6.00;2.30;;;;;;;6.32;75.82;99516.02;3723448;79;44722;-24
2021/04/13 13:04:15;;;;;;;3.77;2.50;;;;;;;6.26;75.35;99507.56;3729431;79;73731;-24
2021/04/13 13:09:31;;;;;;;6.17;2.53;;;;;;;6.26;75.20;99507.06;3759483;77;43713;-24
2021/04/13 13:14:41;;;;;;;3.50;2.10;;;;;;;6.22;75.21;99506.92;3743695;78;44089;-22
2021/04/13 13:19:49;;;;;;;4.03;2.17;;;;;;;6.22;75.86;99504.72;3672601;80;44023;-23
2021/04/13 13:24:56;;;;;;;4.53;2.50;;;;;;;6.08;68.94;99498.99;3681954;80;43687;-23
2021/04/13 13:30:05;;;;;;;3.37;2.17;;;;;;;6.60;75.35;99489.12;3707141;80;44009;-23
2021/04/13 13:35:16;;;;;;;4.60;2.30;;;;;;;6.96;66.87;99479.39;3707152;80;73240;-23
2021/04/13 13:40:25;;;;;;;4.77;2.17;;;;;;;6.94;66.24;99474.63;3704606;80;73634;-23
2021/04/13 13:45:33;;;;;;;5.67;2.50;;;;;;;7.02;65.40;99461.52;3702562;78;43974;-24
2021/04/13 13:50:42;;;;;;;6.63;2.87;;;;;;;6.69;69.27;99464.34;3704411;80;69141;-23
2021/04/13 13:55:59;;;;;;;8.20;2.77;;;;;;;6.19;69.29;99464.31;3705773;80;43004;-25
2021/04/13 14:01:07;;;;;;;5.97;2.90;;;;;;;6.03;75.60;99472.56;3579703;82;69407;-23
2021/04/13 14:06:17;;;;;;;5.43;2.83;;;;;;;4.88;91.04;99507.29;3704595;80;43792;-24
2021/04/13 14:11:29;;;;;;;5.73;3.30;;;;;;;3.96;100.00;99496.05;3703074;80;43430;-24
2021/04/13 14:16:43;;;;;;;5.20;3.13;;;;;;;3.94;100.00;99488.13;3696104;78;410160;-24
2021/04/13 14:21:52;;;;;;;4.00;2.23;;;;;;;3.99;100.00;99480.72;3667961;80;43477;-23
2021/04/13 14:27:10;;;;;;;5.30;2.93;;;;;;;4.30;100.00;99468.16;3745244;78;44031;-24
2021/04/13 14:32:17;;;;;;;3.77;2.57;;;;;;;4.99;100.00;99459.37;3701549;78;43990;-24
2021/04/13 14:37:27;;;;;;;3.07;2.00;;;;;;;6.02;100.00;99450.78;3679319;78;43719;-23
2021/04/13 14:42:33;;;;;;;2.57;2.00;;;;;;;6.92;86.11;99439.05;3680217;78;44010;-23
2021/04/13 14:47:40;;;;;;;4.67;2.02;;;;;;;7.02;79.32;99437.40;3687787;78;137644;-23
2021/04/13 14:52:48;;;;;;;3.87;1.90;;;;;;;7.50;69.76;99432.51;3640878;80;44038;-24
2021/04/13 14:57:55;;;;;;;4.10;1.53;;;;;;;7.80;70.38;99419.05;3690425;79;43704;-24
2021/04/13 15:03:01;;;;;;;5.83;2.10;;;;;;;8.32;59.33;99410.56;3692758;79;43330;-24
2021/04/13 15:08:09;;;;;;;3.30;1.90;;;;;;;8.01;58.92;99400.42;3694094;79;43717;-24
2021/04/13 15:13:15;;;;;;;4.70;2.10;;;;;;;8.53;67.40;99395.91;3698325;79;69154;-23
2021/04/13 15:18:23;;;;;;;4.43;1.77;;;;;;;9.01;61.10;99395.19;3701508;79;43673;-23
2021/04/13 15:23:31;;;;;;;2.02;1.50;;;;;;;8.83;56.53;99386.34;3697596;79;43779;-24
2021/04/13 15:28:37;;;;;;;3.87;1.72;;;;;;;8.32;59.66;99388.58;3599563;80;44160;-23
2021/04/13 15:33:46;;;;;;;3.07;1.60;;;;;;;8.08;62.14;99384.69;3575704;82;43679;-23
2021/04/13 15:38:52;;;;;;;2.87;1.40;;;;;;;7.32;56.42;99402.59;3685693;79;44032;-23
2021/04/13 15:44:00;;;;;;;2.77;1.47;;;;;;;6.98;57.86;99395.75;3683533;79;43385;-23
2021/04/13 15:49:10;;;;;;;2.65;1.20;;;;;;;6.71;59.45;99392.79;3685568;79;44058;-23
2021/04/13 15:54:17;;;;;;;2.93;1.50;;;;;;;5.85;67.16;99407.80;3686647;79;73579;-23
2021/04/13 15:59:25;;;;;;;1.82;1.37;;;;;;;5.93;76.12;99408.10;3673101;79;43312;-23
2021/04/13 16:04:31;;;;;;;4.35;1.70;;;;;;;5.95;76.70;99406.64;3589086;80;44031;-23
2021/04/13 16:09:37;;;;;;;4.03;1.70;;;;;;;5.82;80.63;99398.14;3660416;79;43426;-24
2021/04/13 16:14:43;;;;;;;3.17;1.40;;;;;;;5.90;82.18;99406.13;3608048;80;73155;-24
2021/04/13 16:19:49;;;;;;;4.20;2.17;;;;;;;5.98;80.71;99404.64;3700142;77;411567;-23
2021/04/13 16:24:56;;;;;;;1.82;1.40;;;;;;;6.33;75.14;99412.48;3731316;77;43436;-24
2021/04/13 16:30:02;;;;;;;2.80;1.60;;;;;;;6.57;76.37;99413.02;3721262;78;44264;-24
2021/04/13 16:35:11;;;;;;;3.87;1.97;;;;;;;6.60;75.70;99406.11;3716142;78;73246;-24
2021/04/13 16:40:23;;;;;;;4.17;1.80;;;;;;;6.45;76.09;99416.95;3720890;78;43741;-23
2021/04/13 16:45:32;;;;;;;2.70;1.80;;;;;;;6.45;78.32;99417.45;3723379;78;44022;-23
2021/04/13 16:50:38;;;;;;;2.87;1.63;;;;;;;6.05;84.44;99421.15;3724468;78;43373;-23
2021/04/13 16:55:44;;;;;;;3.35;1.82;;;;;;;6.08;81.65;99422.73;3731708;77;43346;-22
2021/04/13 17:00:52;;;;;;;2.83;1.60;;;;;;;5.95;84.31;99422.23;3729939;78;73113;-24
2021/04/13 17:06:04;;;;;;;2.90;1.60;;;;;;;5.64;84.70;99429.71;3670030;80;43719;-25
2021/04/13 17:11:13;;;;;;;3.10;1.70;;;;;;;5.52;88.17;99431.38;3681089;80;43483;-24
2021/04/13 17:16:23;;;;;;;2.70;1.60;;;;;;;5.27;87.17;99442.01;3678949;80;44006;-24
2021/04/13 17:21:33;;;;;;;2.60;1.70;;;;;;;5.11;91.56;99438.16;3741400;78;42624;-23
2021/04/13 17:26:41;;;;;;;3.43;2.03;;;;;;;4.82;93.69;99472.98;3723804;78;44027;-23
2021/04/13 17:31:52;;;;;;;3.63;1.70;;;;;;;4.69;100.00;99459.55;3710652;78;44021;-23
2021/04/13 17:37:01;;;;;;;2.97;1.80;;;;;;;4.16;100.00;99467.69;3727122;79;43487;-22
2021/04/13 17:42:11;;;;;;;4.53;1.87;;;;;;;3.83;100.00;99467.92;3717590;78;44062;-24
2021/04/13 17:47:23;;;;;;;6.70;1.97;;;;;;;3.66;100.00;99458.27;3712764;78;42232;-24
2021/04/13 17:52:32;;;;;;;5.40;2.10;;;;;;;3.34;100.00;99469.91;3712864;78;44028;-23
2021/04/13 17:57:39;;;;;;;3.67;1.90;;;;;;;3.17;100.00;99459.36;3740767;79;43333;-23
2021/04/13 18:02:48;;;;;;;2.90;1.80;;;;;;;3.25;100.00;99469.09;3743770;78;43354;-22
2021/04/13 18:08:00;;;;;;;5.67;2.27;;;;;;;3.29;100.00;99467.13;3723115;79;43595;-23
2021/04/13 18:13:09;;;;;;;3.13;2.20;;;;;;;3.33;100.00;99477.52;3680355;79;43713;-23
2021/04/13 18:18:18;;;;;;;4.20;2.43;;;;;;;3.33;100.00;99469.98;3676171;79;43935;-23
2021/04/13 18:23:27;;;;;;;5.67;3.07;;;;;;;3.24;100.00;99484.67;3695777;79;44388;-23
2021/04/13 18:28:36;;;;;;;2.13;1.90;;;;;;;3.25;100.00;99478.41;3742759;77;43950;-24
2021/04/13 18:33:46;;;;;;;5.07;1.80;;;;;;;3.06;100.00;99492.78;3751562;77;44109;-24
2021/04/13 18:38:54;;;;;;;4.27;1.97;;;;;;;2.89;100.00;99496.41;3732572;78;43228;-24
2021/04/13 18:44:03;;;;;;;4.77;2.50;;;;;;;2.92;100.00;99499.36;3764075;77;44041;-24
2021/04/13 18:49:14;;;;;;;3.10;1.90;;;;;;;2.76;100.00;99496.70;3675816;78;44021;-24
2021/04/13 18:54:25;;;;;;;3.00;2.00;;;;;;;2.68;100.00;99493.13;3653594;80;44125;-23
2021/04/13 18:59:36;;;;;;;2.27;1.93;;;;;;;2.62;100.00;99494.80;3691535;79;44052;-26
2021/04/13 19:04:42;;;;;;;6.40;2.50;;;;;;;2.49;100.00;99497.74;3691105;79;44054;-25
2021/04/13 19:09:55;;;;;;;2.93;1.90;;;;;;;2.33;100.00;99513.19;3672739;79;44140;-25
2021/04/13 19:15:09;;;;;;;4.17;2.23;;;;;;;2.39;100.00;99510.22;3659273;79;43962;-25
2021/04/13 19:20:23;;;;;;;4.83;1.90;;;;;;;2.39;100.00;99507.55;3643980;80;44010;-25
2021/04/13 19:25:28;;;;;;;4.90;2.20;;;;;;;2.34;100.00;99514.06;3672391;79;43666;-25
2021/04/13 19:30:38;;;;;;;6.13;2.50;;;;;;;2.27;100.00;99513.53;3607199;81;43416;-25
2021/04/13 19:35:49;;;;;;;3.17;2.40;;;;;;;2.21;100.00;99512.51;3663042;80;44457;-25
2021/04/13 19:40:56;;;;;;;3.50;2.90;;;;;;;2.32;100.00;99515.45;3559509;82;44079;-25
2021/04/13 19:46:05;;;;;;;6.57;3.33;;;;;;;2.32;100.00;99526.09;3677829;80;43322;-26
2021/04/13 19:51:14;;;;;;;3.73;2.40;;;;;;;2.33;100.00;99522.98;3671839;80;43005;-25
2021/04/13 19:56:21;;;;;;;6.90;2.40;;;;;;;2.26;100.00;99522.44;3665945;80;44046;-25
2021/04/13 20:01:28;;;;;;;4.17;2.00;;;;;;;2.09;100.00;99524.66;3613832;80;43689;-26
2021/04/13 20:06:37;;;;;;;3.47;2.27;;;;;;;2.01;100.00;99530.38;3668120;80;43678;-24
2021/04/13 20:11:51;;;;;;;5.93;2.77;;;;;;;1.93;100.00;99528.11;3554859;82;44048;-24
2021/04/13 20:17:04;;;;;;;3.67;2.23;;;;;;;1.88;100.00;99529.28;3661573;80;44089;-24
2021/04/13 20:22:12;;;;;;;3.67;2.97;;;;;;;1.77;100.00;99532.02;3559349;83;44128;-24
2021/04/13 20:27:21;;;;;;;6.17;3.73;;;;;;;1.69;100.00;99531.08;3646867;80;42969;-24
2021/04/13 20:32:32;;;;;;;8.67;4.50;;;;;;;1.61;100.00;99532.39;3632710;81;43346;-24
2021/04/13 20:43:08;;;;;;;6.40;4.00;;;;;;;1.45;100.00;99529.19;3626465;80;43367;-24
2021/04/13 20:48:17;;;;;;;7.43;3.93;;;;;;;1.38;100.00;99526.43;3623898;79;42496;-25
2021/04/13 20:53:27;;;;;;;4.47;3.00;;;;;;;1.34;100.00;99527.53;3628750;81;43326;-24
2021/04/13 20:58:39;;;;;;;3.73;3.20;;;;;;;1.30;100.00;99529.94;3619176;81;44061;-25
2021/04/13 21:03:50;;;;;;;4.63;3.47;;;;;;;1.21;100.00;99524.16;3619932;81;43683;-25
2021/04/13 21:08:58;;;;;;;4.70;3.40;;;;;;;1.15;100.00;99526.23;3624235;81;43771;-25
2021/04/13 21:14:06;;;;;;;4.87;2.87;;;;;;;1.08;100.00;99519.88;3618893;81;43468;-25
2021/04/13 21:19:15;;;;;;;4.77;3.10;;;;;;;1.06;100.00;99530.19;3618540;79;42872;-25
2021/04/13 21:24:25;;;;;;;7.03;3.00;;;;;;;1.03;100.00;99528.55;3632190;81;44058;-25
2021/04/13 21:29:32;;;;;;;3.50;2.53;;;;;;;1.01;100.00;99521.13;3618014;81;43127;-25
2021/04/13 21:34:43;;;;;;;6.87;3.27;;;;;;;1.22;100.00;99515.25;3674118;80;43441;-25
2021/04/13 21:39:53;;;;;;;4.97;2.80;;;;;;;1.33;100.00;99517.84;3518433;83;43772;-25
2021/04/13 21:45:04;;;;;;;6.60;2.33;;;;;;;1.27;100.00;99512.38;3662808;80;44104;-25
2021/04/13 21:50:16;;;;;;;7.80;2.43;;;;;;;1.33;100.00;99507.23;3669987;79;43467;-25
2021/04/13 21:55:26;;;;;;;3.03;2.10;;;;;;;1.37;100.00;99508.77;3661869;80;43260;-25
2021/04/13 22:00:36;;;;;;;4.00;2.00;;;;;;;1.23;100.00;99514.77;3610122;81;43685;-25
2021/04/13 22:05:45;;;;;;;2.83;2.13;;;;;;;1.29;100.00;99512.28;3662599;80;43717;-25
2021/04/13 22:10:55;;;;;;;3.70;2.23;;;;;;;1.43;100.00;99507.16;3551868;81;43108;-25
2021/04/13 22:16:02;;;;;;;4.33;2.07;;;;;;;1.29;100.00;99509.18;3665541;80;43420;-25
2021/04/13 22:21:12;;;;;;;4.63;2.47;;;;;;;1.13;100.00;99506.39;3557843;82;44055;-26
2021/04/13 22:26:21;;;;;;;3.10;2.10;;;;;;;1.00;100.00;99507.46;3662669;80;44050;-26
2021/04/13 22:31:30;;;;;;;3.60;2.17;;;;;;;0.98;100.00;99505.34;3604154;81;44183;-25
2021/04/13 22:36:38;;;;;;;3.13;2.23;;;;;;;0.88;100.00;99510.22;3660212;80;43454;-24
2021/04/13 22:41:46;;;;;;;4.07;2.27;;;;;;;0.97;100.00;99514.72;3555456;82;44324;-24
2021/04/13 22:46:53;;;;;;;3.63;2.30;;;;;;;0.94;100.00;99503.79;3654795;80;43377;-26
2021/04/13 22:52:05;;;;;;;3.37;2.20;;;;;;;0.90;100.00;99508.36;3603425;81;43419;-25
2021/04/13 22:57:14;;;;;;;4.43;2.37;;;;;;;0.77;100.00;99508.54;3647286;79;43730;-24
2021/04/13 23:02:20;;;;;;;2.83;2.43;;;;;;;0.64;100.00;99511.40;3646511;80;44211;-25
2021/04/13 23:07:26;;;;;;;3.93;2.73;;;;;;;0.49;100.00;99504.54;3594139;81;44007;-25
2021/04/13 23:12:32;;;;;;;3.33;2.10;;;;;;;0.37;100.00;99507.75;3664271;80;44145;-25
2021/04/13 23:17:37;;;;;;;5.80;2.60;;;;;;;0.27;100.00;99503.32;3655038;80;44022;-24
2021/04/13 23:22:44;;;;;;;3.90;2.60;;;;;;;0.19;100.00;99512.94;3675876;80;43661;-25
2021/04/13 23:27:51;;;;;;;6.03;2.73;;;;;;;0.15;100.00;99513.55;3670901;79;44552;-24
2021/04/13 23:32:57;;;;;;;3.97;2.60;;;;;;;0.10;100.00;99514.23;3674198;80;43674;-25
2021/04/13 23:38:04;;;;;;;5.13;2.80;;;;;;;0.19;100.00;99514.27;3668828;80;43596;-25
2021/04/13 23:43:11;;;;;;;4.60;2.30;;;;;;;0.34;100.00;99510.53;3549387;83;43679;-25
2021/04/13 23:48:17;;;;;;;4.40;2.17;;;;;;;0.36;100.00;99496.75;3665754;80;43300;-25
2021/04/13 23:53:23;;;;;;;3.93;2.23;;;;;;;0.44;100.00;99498.58;3608927;81;43395;-25
2021/04/13 23:58:28;;;;;;;2.80;2.00;;;;;;;0.49;100.00;99491.28;3656623;79;44067;-24
